sensor_id;sensor_type;location;lat;lon;timestamp;pressure;altitude;pressure_sealevel;temperature;humidity
69318;BME280;56457;52.190;4.440;2024-01-11T00:00:00;103493.16;;;-2.58;100.00
69318;BME280;56457;52.190;4.440;2024-01-11T00:01:21;103487.75;;;-2.51;100.00
69318;BME280;56457;52.190;4.440;2024-01-11T00:02:41;103483.28;;;-2.53;100.00
69318;BME280;56457;52.190;4.440;2024-01-11T00:04:02;103479.41;;;-2.58;100.00
69318;BME280;56457;52.190;4.440;2024-01-11T00:05:23;103487.88;;;-2.59;100.00
69318;BME280;56457;52.190;4.440;2024-01-11T00:06:43;103484.25;;;-2.61;100.00
69318;BME280;56457;52.190;4.440;2024-01-11T00:08:04;103479.09;;;-2.61;100.00
69318;BME280;56457;52.190;4.440;2024-01-11T00:09:25;103483.72;;;-2.67;100.00
69318;BME280;56457;52.190;4.440;2024-01-11T00:10:45;103481.56;;;-2.63;100.00
69318;BME280;56457;52.190;4.440;2024-01-11T00:12:06;103483.34;;;-2.62;100.00
69318;BME280;56457;52.190;4.440;2024-01-11T00:13:26;103485.19;;;-2.61;100.00
69318;BME280;56457;52.190;4.440;2024-01-11T00:14:49;103479.09;;;-2.61;100.00
69318;BME280;56457;52.190;4.440;2024-01-11T00:16:09;103477.47;;;-2.61;100.00
69318;BME280;56457;52.190;4.440;2024-01-11T00:17:30;103480.16;;;-2.59;100.00
69318;BME280;56457;52.190;4.440;2024-01-11T00:18:50;103481.97;;;-2.58;100.00
69318;BME280;56457;52.190;4.440;2024-01-11T00:20:11;103484.13;;;-2.63;100.00
69318;BME280;56457;52.190;4.440;2024-01-11T00:21:32;103484.78;;;-2.65;100.00
69318;BME280;56457;52.190;4.440;2024-01-11T00:22:52;103473.59;;;-2.66;100.00
69318;BME280;56457;52.190;4.440;2024-01-11T00:24:13;103480.53;;;-2.65;100.00
69318;BME280;56457;52.190;4.440;2024-01-11T00:25:33;103480.13;;;-2.69;100.00
69318;BME280;56457;52.190;4.440;2024-01-11T00:26:54;103474.84;;;-2.71;100.00
69318;BME280;56457;52.190;4.440;2024-01-11T00:28:15;103480.13;;;-2.69;100.00
69318;BME280;56457;52.190;4.440;2024-01-11T00:29:35;103483.34;;;-2.72;100.00
69318;BME280;56457;52.190;4.440;2024-01-11T00:30:56;103489.84;;;-2.76;100.00
69318;BME280;56457;52.190;4.440;2024-01-11T00:32:16;103490.50;;;-2.78;100.00
69318;BME280;56457;52.190;4.440;2024-01-11T00:33:37;103481.13;;;-2.78;100.00
69318;BME280;56457;52.190;4.440;2024-01-11T00:34:57;103482.91;;;-2.77;100.00
69318;BME280;56457;52.190;4.440;2024-01-11T00:36:18;103478.81;;;-2.75;100.00
69318;BME280;56457;52.190;4.440;2024-01-11T00:37:40;103475.84;;;-2.79;100.00
69318;BME280;56457;52.190;4.440;2024-01-11T00:39:01;103477.25;;;-2.83;100.00
69318;BME280;56457;52.190;4.440;2024-01-11T00:40:22;103481.59;;;-2.82;100.00
69318;BME280;56457;52.190;4.440;2024-01-11T00:41:42;103480.84;;;-2.81;100.00
69318;BME280;56457;52.190;4.440;2024-01-11T00:43:04;103477.25;;;-2.83;100.00
69318;BME280;56457;52.190;4.440;2024-01-11T00:44:24;103482.09;;;-2.86;100.00
69318;BME280;56457;52.190;4.440;2024-01-11T00:45:45;103486.50;;;-2.85;100.00
69318;BME280;56457;52.190;4.440;2024-01-11T00:47:06;103490.56;;;-2.87;100.00
69318;BME280;56457;52.190;4.440;2024-01-11T00:48:27;103481.19;;;-2.86;100.00
69318;BME280;56457;52.190;4.440;2024-01-11T00:49:47;103488.50;;;-2.91;100.00
69318;BME280;56457;52.190;4.440;2024-01-11T00:51:08;103481.41;;;-2.93;100.00
69318;BME280;56457;52.190;4.440;2024-01-11T00:52:28;103482.97;;;-2.95;100.00
69318;BME280;56457;52.190;4.440;2024-01-11T00:53:49;103481.03;;;-2.98;100.00
69318;BME280;56457;52.190;4.440;2024-01-11T00:55:09;103481.03;;;-2.98;100.00
69318;BME280;56457;52.190;4.440;2024-01-11T00:56:30;103479.50;;;-2.96;100.00
69318;BME280;56457;52.190;4.440;2024-01-11T00:57:50;103478.97;;;-2.92;100.00
69318;BME280;56457;52.190;4.440;2024-01-11T00:59:11;103475.25;;;-2.95;100.00
69318;BME280;56457;52.190;4.440;2024-01-11T01:00:31;103475.59;;;-3.01;100.00
69318;BME280;56457;52.190;4.440;2024-01-11T01:01:52;103487.97;;;-2.97;100.00
69318;BME280;56457;52.190;4.440;2024-01-11T01:03:13;103479.84;;;-3.02;100.00
69318;BME280;56457;52.190;4.440;2024-01-11T01:04:37;103480.53;;;-2.94;100.00
69318;BME280;56457;52.190;4.440;2024-01-11T01:05:57;103482.19;;;-2.94;100.00
69318;BME280;56457;52.190;4.440;2024-01-11T01:07:18;103484.00;;;-2.93;100.00
69318;BME280;56457;52.190;4.440;2024-01-11T01:08:39;103485.25;;;-2.99;100.00
69318;BME280;56457;52.190;4.440;2024-01-11T01:09:59;103484.63;;;-2.96;100.00
69318;BME280;56457;52.190;4.440;2024-01-11T01:11:20;103493.88;;;-2.98;100.00
69318;BME280;56457;52.190;4.440;2024-01-11T01:12:40;103491.56;;;-2.95;100.00
69318;BME280;56457;52.190;4.440;2024-01-11T01:14:01;103494.34;;;-3.02;100.00
69318;BME280;56457;52.190;4.440;2024-01-11T01:15:22;103497.53;;;-3.05;100.00
69318;BME280;56457;52.190;4.440;2024-01-11T01:16:42;103499.06;;;-3.07;100.00
69318;BME280;56457;52.190;4.440;2024-01-11T01:18:03;103500.88;;;-3.06;100.00
69318;BME280;56457;52.190;4.440;2024-01-11T01:19:25;103501.03;;;-3.04;100.00
69318;BME280;56457;52.190;4.440;2024-01-11T01:20:45;103508.88;;;-3.03;100.00
69318;BME280;56457;52.190;4.440;2024-01-11T01:22:06;103510.25;;;-3.06;100.00
69318;BME280;56457;52.190;4.440;2024-01-11T01:23:26;103501.63;;;-3.07;100.00
69318;BME280;56457;52.190;4.440;2024-01-11T01:24:47;103501.63;;;-3.07;100.00
69318;BME280;56457;52.190;4.440;2024-01-11T01:26:07;103495.19;;;-3.12;100.00
69318;BME280;56457;52.190;4.440;2024-01-11T01:27:28;103503.78;;;-3.11;100.00
69318;BME280;56457;52.190;4.440;2024-01-11T01:28:49;103504.09;;;-3.08;100.00
69318;BME280;56457;52.190;4.440;2024-01-11T01:30:09;103507.25;;;-3.11;100.00
69318;BME280;56457;52.190;4.440;2024-01-11T01:31:30;103504.09;;;-3.08;100.00
69318;BME280;56457;52.190;4.440;2024-01-11T01:32:51;103506.66;;;-3.08;100.00
69318;BME280;56457;52.190;4.440;2024-01-11T01:34:11;103513.31;;;-3.10;100.00
69318;BME280;56457;52.190;4.440;2024-01-11T01:35:32;103506.34;;;-3.11;100.00
69318;BME280;56457;52.190;4.440;2024-01-11T01:36:53;103507.13;;;-3.12;100.00
69318;BME280;56457;52.190;4.440;2024-01-11T01:38:14;103502.00;;;-3.12;100.00
69318;BME280;56457;52.190;4.440;2024-01-11T01:39:37;103510.47;;;-3.13;100.00
69318;BME280;56457;52.190;4.440;2024-01-11T01:40:58;103509.44;;;-3.15;100.00
69318;BME280;56457;52.190;4.440;2024-01-11T01:42:18;103505.97;;;-3.16;100.00
69318;BME280;56457;52.190;4.440;2024-01-11T01:43:39;103512.25;;;-3.12;100.00
69318;BME280;56457;52.190;4.440;2024-01-11T01:44:59;103512.25;;;-3.12;100.00
69318;BME280;56457;52.190;4.440;2024-01-11T01:46:22;103513.94;;;-3.13;100.00
69318;BME280;56457;52.190;4.440;2024-01-11T01:47:43;103512.13;;;-3.14;100.00
69318;BME280;56457;52.190;4.440;2024-01-11T01:49:04;103507.91;;;-3.13;100.00
69318;BME280;56457;52.190;4.440;2024-01-11T01:50:25;103500.06;;;-3.15;100.00
69318;BME280;56457;52.190;4.440;2024-01-11T01:51:46;103505.47;;;-3.12;100.00
69318;BME280;56457;52.190;4.440;2024-01-11T01:53:07;103508.44;;;-3.07;100.00
69318;BME280;56457;52.190;4.440;2024-01-11T01:54:27;103513.88;;;-3.04;100.00
69318;BME280;56457;52.190;4.440;2024-01-11T01:55:48;103516.78;;;-3.10;100.00
69318;BME280;56457;52.190;4.440;2024-01-11T01:57:09;103514.22;;;-3.10;100.00
69318;BME280;56457;52.190;4.440;2024-01-11T01:58:30;103518.94;;;-3.14;100.00
69318;BME280;56457;52.190;4.440;2024-01-11T01:59:51;103521.97;;;-3.18;100.00
69318;BME280;56457;52.190;4.440;2024-01-11T02:01:15;103512.59;;;-3.18;100.00
69318;BME280;56457;52.190;4.440;2024-01-11T02:02:35;103519.63;;;-3.26;100.00
69318;BME280;56457;52.190;4.440;2024-01-11T02:03:56;103517.97;;;-3.25;100.00
69318;BME280;56457;52.190;4.440;2024-01-11T02:05:17;103514.28;;;-3.18;100.00
69318;BME280;56457;52.190;4.440;2024-01-11T02:06:38;103522.28;;;-3.15;100.00
69318;BME280;56457;52.190;4.440;2024-01-11T02:07:59;103517.13;;;-3.15;100.00
69318;BME280;56457;52.190;4.440;2024-01-11T02:09:21;103523.78;;;-3.17;100.00
69318;BME280;56457;52.190;4.440;2024-01-11T02:10:43;103515.81;;;-3.20;100.00
69318;BME280;56457;52.190;4.440;2024-01-11T02:12:03;103512.41;;;-3.30;100.00
69318;BME280;56457;52.190;4.440;2024-01-11T02:13:25;103515.25;;;-3.27;100.00
69318;BME280;56457;52.190;4.440;2024-01-11T02:14:46;103512.94;;;-3.23;100.00
69318;BME280;56457;52.190;4.440;2024-01-11T02:16:06;103519.91;;;-3.22;100.00
69318;BME280;56457;52.190;4.440;2024-01-11T02:17:27;103521.72;;;-3.21;100.00
69318;BME280;56457;52.190;4.440;2024-01-11T02:18:48;103521.72;;;-3.21;100.00
69318;BME280;56457;52.190;4.440;2024-01-11T02:20:08;103522.28;;;-3.15;100.00
69318;BME280;56457;52.190;4.440;2024-01-11T02:21:29;103536.50;;;-3.19;100.00
69318;BME280;56457;52.190;4.440;2024-01-11T02:22:52;103525.97;;;-3.22;100.00
69318;BME280;56457;52.190;4.440;2024-01-11T02:24:13;103534.94;;;-3.17;100.00
69318;BME280;56457;52.190;4.440;2024-01-11T02:25:34;103540.59;;;-3.21;100.00
69318;BME280;56457;52.190;4.440;2024-01-11T02:28:19;103535.31;;;-3.22;100.00
69318;BME280;56457;52.190;4.440;2024-01-11T02:29:40;103533.50;;;-3.23;100.00
69318;BME280;56457;52.190;4.440;2024-01-11T02:31:00;103531.56;;;-3.26;100.00
69318;BME280;56457;52.190;4.440;2024-01-11T02:32:21;103529.25;;;-3.23;100.00
69318;BME280;56457;52.190;4.440;2024-01-11T02:33:42;103530.78;;;-3.25;100.00
69318;BME280;56457;52.190;4.440;2024-01-11T02:35:02;103522.63;;;-3.21;100.00
69318;BME280;56457;52.190;4.440;2024-01-11T02:36:24;103525.97;;;-3.22;100.00
69318;BME280;56457;52.190;4.440;2024-01-11T02:37:45;103524.28;;;-3.21;100.00
69318;BME280;56457;52.190;4.440;2024-01-11T02:39:06;103528.53;;;-3.22;100.00
69318;BME280;56457;52.190;4.440;2024-01-11T02:40:27;103528.22;;;-3.25;100.00
69318;BME280;56457;52.190;4.440;2024-01-11T02:41:50;103527.47;;;-3.24;100.00
69318;BME280;56457;52.190;4.440;2024-01-11T02:43:11;103536.22;;;-3.22;100.00
69318;BME280;56457;52.190;4.440;2024-01-11T02:44:31;103533.50;;;-3.23;100.00
69318;BME280;56457;52.190;4.440;2024-01-11T02:45:55;103527.31;;;-3.26;100.00
69318;BME280;56457;52.190;4.440;2024-01-11T02:47:16;103529.75;;;-3.27;100.00
69318;BME280;56457;52.190;4.440;2024-01-11T02:48:36;103535.94;;;-3.25;100.00
69318;BME280;56457;52.190;4.440;2024-01-11T02:49:57;103528.66;;;-3.20;100.00
69318;BME280;56457;52.190;4.440;2024-01-11T02:51:18;103526.09;;;-3.20;100.00
69318;BME280;56457;52.190;4.440;2024-01-11T02:52:38;103522.50;;;-3.22;100.00
69318;BME280;56457;52.190;4.440;2024-01-11T02:53:59;103531.34;;;-3.19;100.00
69318;BME280;56457;52.190;4.440;2024-01-11T02:55:19;103529.44;;;-3.21;100.00
69318;BME280;56457;52.190;4.440;2024-01-11T02:56:40;103528.66;;;-3.20;100.00
69318;BME280;56457;52.190;4.440;2024-01-11T02:58:01;103527.63;;;-3.22;100.00
69318;BME280;56457;52.190;4.440;2024-01-11T02:59:21;103527.63;;;-3.22;100.00
69318;BME280;56457;52.190;4.440;2024-01-11T03:00:42;103516.81;;;-3.29;100.00
69318;BME280;56457;52.190;4.440;2024-01-11T03:02:03;103517.28;;;-3.33;100.00
69318;BME280;56457;52.190;4.440;2024-01-11T03:03:23;103521.94;;;-3.29;100.00
69318;BME280;56457;52.190;4.440;2024-01-11T03:04:44;103521.44;;;-3.25;100.00
69318;BME280;56457;52.190;4.440;2024-01-11T03:06:04;103520.66;;;-3.23;100.00
69318;BME280;56457;52.190;4.440;2024-01-11T03:07:25;103526.44;;;-3.26;100.00
69318;BME280;56457;52.190;4.440;2024-01-11T03:08:45;103522.97;;;-3.27;100.00
69318;BME280;56457;52.190;4.440;2024-01-11T03:10:06;103516.81;;;-3.29;100.00
69318;BME280;56457;52.190;4.440;2024-01-11T03:11:27;103517.53;;;-3.30;100.00
69318;BME280;56457;52.190;4.440;2024-01-11T03:12:47;103521.94;;;-3.29;100.00
69318;BME280;56457;52.190;4.440;2024-01-11T03:14:09;103518.47;;;-3.29;100.00
69318;BME280;56457;52.190;4.440;2024-01-11T03:15:30;103527.19;;;-3.27;100.00
69318;BME280;56457;52.190;4.440;2024-01-11T03:16:50;103525.41;;;-3.28;100.00
69318;BME280;56457;52.190;4.440;2024-01-11T03:18:11;103525.22;;;-3.30;100.00
69318;BME280;56457;52.190;4.440;2024-01-11T03:19:31;103529.63;;;-3.29;100.00
69318;BME280;56457;52.190;4.440;2024-01-11T03:20:52;103532.53;;;-3.34;100.00
69318;BME280;56457;52.190;4.440;2024-01-11T03:22:13;103531.66;;;-3.35;100.00
69318;BME280;56457;52.190;4.440;2024-01-11T03:23:34;103536.22;;;-3.41;100.00
69318;BME280;56457;52.190;4.440;2024-01-11T03:24:54;103533.47;;;-3.42;100.00
69318;BME280;56457;52.190;4.440;2024-01-11T03:26:15;103536.56;;;-3.46;100.00
69318;BME280;56457;52.190;4.440;2024-01-11T03:27:36;103543.34;;;-3.47;100.00
69318;BME280;56457;52.190;4.440;2024-01-11T03:28:57;103544.25;;;-3.46;100.00
69318;BME280;56457;52.190;4.440;2024-01-11T03:30:18;103550.41;;;-3.44;100.00
69318;BME280;56457;52.190;4.440;2024-01-11T03:31:38;103547.59;;;-3.47;100.00
69318;BME280;56457;52.190;4.440;2024-01-11T03:33:01;103546.66;;;-3.48;100.00
69318;BME280;56457;52.190;4.440;2024-01-11T03:34:22;103541.69;;;-3.46;100.00
69318;BME280;56457;52.190;4.440;2024-01-11T03:35:43;103551.06;;;-3.47;100.00
69318;BME280;56457;52.190;4.440;2024-01-11T03:37:04;103551.78;;;-3.48;100.00
69318;BME280;56457;52.190;4.440;2024-01-11T03:38:24;103546.66;;;-3.48;100.00
69318;BME280;56457;52.190;4.440;2024-01-11T03:39:45;103544.59;;;-3.52;100.00
69318;BME280;56457;52.190;4.440;2024-01-11T03:41:09;103547.28;;;-3.50;100.00
69318;BME280;56457;52.190;4.440;2024-01-11T03:42:30;103542.78;;;-3.53;100.00
69318;BME280;56457;52.190;4.440;2024-01-11T03:43:50;103541.13;;;-3.53;100.00
69318;BME280;56457;52.190;4.440;2024-01-11T03:45:11;103538.88;;;-3.58;100.00
69318;BME280;56457;52.190;4.440;2024-01-11T03:46:31;103540.69;;;-3.57;100.00
69318;BME280;56457;52.190;4.440;2024-01-11T03:47:52;103541.31;;;-3.60;100.00
69318;BME280;56457;52.190;4.440;2024-01-11T03:49:13;103533.63;;;-3.60;100.00
69318;BME280;56457;52.190;4.440;2024-01-11T03:50:33;103534.09;;;-3.64;100.00
69318;BME280;56457;52.190;4.440;2024-01-11T03:51:54;103535.28;;;-3.60;100.00
69318;BME280;56457;52.190;4.440;2024-01-11T03:53:14;103533.13;;;-3.56;100.00
69318;BME280;56457;52.190;4.440;2024-01-11T03:54:35;103538.25;;;-3.56;100.00
69318;BME280;56457;52.190;4.440;2024-01-11T03:55:56;103538.25;;;-3.56;100.00
69318;BME280;56457;52.190;4.440;2024-01-11T03:57:16;103545.81;;;-3.57;100.00
69318;BME280;56457;52.190;4.440;2024-01-11T03:58:37;103540.25;;;-3.62;100.00
69318;BME280;56457;52.190;4.440;2024-01-11T03:59:59;103549.91;;;-3.59;100.00
69318;BME280;56457;52.190;4.440;2024-01-11T04:01:20;103551.16;;;-3.64;100.00
69318;BME280;56457;52.190;4.440;2024-01-11T04:02:40;103550.84;;;-3.67;100.00
69318;BME280;56457;52.190;4.440;2024-01-11T04:04:01;103544.06;;;-3.67;100.00
69318;BME280;56457;52.190;4.440;2024-01-11T04:05:22;103538.34;;;-3.73;100.00
69318;BME280;56457;52.190;4.440;2024-01-11T04:06:42;103545.44;;;-3.70;100.00
69318;BME280;56457;52.190;4.440;2024-01-11T04:08:04;103538.31;;;-3.64;100.00
69318;BME280;56457;52.190;4.440;2024-01-11T04:09:24;103540.75;;;-3.66;100.00
69318;BME280;56457;52.190;4.440;2024-01-11T04:10:45;103544.81;;;-3.68;100.00
69318;BME280;56457;52.190;4.440;2024-01-11T04:12:06;103547.13;;;-3.71;100.00
69318;BME280;56457;52.190;4.440;2024-01-11T04:13:26;103542.00;;;-3.71;100.00
69318;BME280;56457;52.190;4.440;2024-01-11T04:14:47;103546.91;;;-3.64;100.00
69318;BME280;56457;52.190;4.440;2024-01-11T04:16:08;103563.22;;;-3.63;100.00
69318;BME280;56457;52.190;4.440;2024-01-11T04:17:28;103568.81;;;-3.67;100.00
69318;BME280;56457;52.190;4.440;2024-01-11T04:18:49;103569.31;;;-3.71;100.00
69318;BME280;56457;52.190;4.440;2024-01-11T04:20:09;103565.53;;;-3.75;100.00
69318;BME280;56457;52.190;4.440;2024-01-11T04:21:30;103570.81;;;-3.73;100.00
69318;BME280;56457;52.190;4.440;2024-01-11T04:22:51;103576.56;;;-3.76;100.00
69318;BME280;56457;52.190;4.440;2024-01-11T04:24:11;103572.97;;;-3.78;100.00
69318;BME280;56457;52.190;4.440;2024-01-11T04:25:32;103576.56;;;-3.76;100.00
69318;BME280;56457;52.190;4.440;2024-01-11T04:26:52;103573.69;;;-3.79;100.00
69318;BME280;56457;52.190;4.440;2024-01-11T04:28:13;103574.63;;;-3.78;100.00
69318;BME280;56457;52.190;4.440;2024-01-11T04:29:34;103586.38;;;-3.81;100.00
69318;BME280;56457;52.190;4.440;2024-01-11T04:30:54;103582.91;;;-3.81;100.00
69318;BME280;56457;52.190;4.440;2024-01-11T04:32:15;103586.53;;;-3.79;100.00
69318;BME280;56457;52.190;4.440;2024-01-11T04:33:35;103581.41;;;-3.79;100.00
69318;BME280;56457;52.190;4.440;2024-01-11T04:34:56;103586.38;;;-3.81;100.00
69318;BME280;56457;52.190;4.440;2024-01-11T04:36:16;103590.75;;;-3.80;100.00
69318;BME280;56457;52.190;4.440;2024-01-11T04:37:37;103580.09;;;-3.84;100.00
69318;BME280;56457;52.190;4.440;2024-01-11T04:38:58;103583.13;;;-3.88;100.00
69318;BME280;56457;52.190;4.440;2024-01-11T04:40:18;103584.78;;;-3.89;100.00
69318;BME280;56457;52.190;4.440;2024-01-11T04:41:39;103588.69;;;-3.84;100.00
69318;BME280;56457;52.190;4.440;2024-01-11T04:42:59;103586.44;;;-3.89;100.00
69318;BME280;56457;52.190;4.440;2024-01-11T04:44:20;103596.56;;;-3.91;100.00
69318;BME280;56457;52.190;4.440;2024-01-11T04:45:40;103601.84;;;-3.89;100.00
69318;BME280;56457;52.190;4.440;2024-01-11T04:47:01;103604.66;;;-3.86;100.00
69318;BME280;56457;52.190;4.440;2024-01-11T04:48:21;103605.56;;;-3.86;100.00
69318;BME280;56457;52.190;4.440;2024-01-11T04:49:42;103609.03;;;-3.85;100.00
69318;BME280;56457;52.190;4.440;2024-01-11T04:51:03;103602.88;;;-3.87;100.00
69318;BME280;56457;52.190;4.440;2024-01-11T04:52:24;103608.75;;;-3.88;100.00
69318;BME280;56457;52.190;4.440;2024-01-11T04:53:45;103599.41;;;-3.88;100.00
69318;BME280;56457;52.190;4.440;2024-01-11T04:55:05;103606.19;;;-3.88;100.00
69318;BME280;56457;52.190;4.440;2024-01-11T04:56:26;103602.28;;;-3.85;100.00
69318;BME280;56457;52.190;4.440;2024-01-11T04:57:46;103617.22;;;-3.89;100.00
69318;BME280;56457;52.190;4.440;2024-01-11T04:59:07;103602.72;;;-3.89;100.00
69318;BME280;56457;52.190;4.440;2024-01-11T05:00:27;103598.22;;;-3.91;100.00
69318;BME280;56457;52.190;4.440;2024-01-11T05:01:48;103602.88;;;-3.87;100.00
69318;BME280;56457;52.190;4.440;2024-01-11T05:03:08;103610.09;;;-3.83;100.00
69318;BME280;56457;52.190;4.440;2024-01-11T05:04:29;103615.69;;;-3.87;100.00
69318;BME280;56457;52.190;4.440;2024-01-11T05:05:50;103611.94;;;-3.91;100.00
69318;BME280;56457;52.190;4.440;2024-01-11T05:07:10;103608.81;;;-3.97;100.00
69318;BME280;56457;52.190;4.440;2024-01-11T05:08:31;103608.81;;;-3.97;100.00
69318;BME280;56457;52.190;4.440;2024-01-11T05:09:51;103608.31;;;-3.93;100.00
69318;BME280;56457;52.190;4.440;2024-01-11T05:11:22;103612.09;;;-3.98;100.00
69318;BME280;56457;52.190;4.440;2024-01-11T05:12:44;103609.72;;;-3.96;100.00
69318;BME280;56457;52.190;4.440;2024-01-11T05:14:04;103601.13;;;-3.97;100.00
69318;BME280;56457;52.190;4.440;2024-01-11T05:15:25;103602.00;;;-3.96;100.00
69318;BME280;56457;52.190;4.440;2024-01-11T05:16:45;103612.09;;;-3.98;100.00
69318;BME280;56457;52.190;4.440;2024-01-11T05:18:06;103610.31;;;-3.99;100.00
69318;BME280;56457;52.190;4.440;2024-01-11T05:19:27;103617.22;;;-3.98;100.00
69318;BME280;56457;52.190;4.440;2024-01-11T05:20:47;103618.91;;;-3.98;100.00
69318;BME280;56457;52.190;4.440;2024-01-11T05:22:08;103608.63;;;-3.98;100.00
69318;BME280;56457;52.190;4.440;2024-01-11T05:23:28;103639.59;;;-1.91;100.00
69318;BME280;56457;52.190;4.440;2024-01-11T05:24:49;103626.44;;;-2.52;100.00
69318;BME280;56457;52.190;4.440;2024-01-11T05:26:10;103622.09;;;-2.91;100.00
69318;BME280;56457;52.190;4.440;2024-01-11T05:27:30;103610.69;;;-3.22;100.00
69318;BME280;56457;52.190;4.440;2024-01-11T05:28:51;103609.13;;;-3.39;100.00
69318;BME280;56457;52.190;4.440;2024-01-11T05:30:11;103608.25;;;-3.48;100.00
69318;BME280;56457;52.190;4.440;2024-01-11T05:31:32;103607.41;;;-3.57;100.00
69318;BME280;56457;52.190;4.440;2024-01-11T05:32:53;103612.44;;;-3.67;100.00
69318;BME280;56457;52.190;4.440;2024-01-11T05:34:14;103608.25;;;-3.75;100.00
69318;BME280;56457;52.190;4.440;2024-01-11T05:35:34;103618.38;;;-3.77;100.00
69318;BME280;56457;52.190;4.440;2024-01-11T05:36:55;103622.44;;;-3.79;100.00
69318;BME280;56457;52.190;4.440;2024-01-11T05:38:16;103619.16;;;-3.87;100.00
69318;BME280;56457;52.190;4.440;2024-01-11T05:39:36;103613.75;;;-3.90;100.00
69318;BME280;56457;52.190;4.440;2024-01-11T05:40:57;103619.66;;;-3.91;100.00
69318;BME280;56457;52.190;4.440;2024-01-11T05:42:17;103616.31;;;-3.90;100.00
69318;BME280;56457;52.190;4.440;2024-01-11T05:43:38;103612.53;;;-3.85;100.00
69318;BME280;56457;52.190;4.440;2024-01-11T05:44:59;103608.00;;;-3.87;100.00
69318;BME280;56457;52.190;4.440;2024-01-11T05:46:20;103602.28;;;-3.85;100.00
69318;BME280;56457;52.190;4.440;2024-01-11T05:47:40;103606.63;;;-3.84;100.00
69318;BME280;56457;52.190;4.440;2024-01-11T05:49:01;103606.78;;;-3.82;100.00
69318;BME280;56457;52.190;4.440;2024-01-11T05:50:22;103603.75;;;-3.78;100.00
69318;BME280;56457;52.190;4.440;2024-01-11T05:51:42;103602.84;;;-3.78;100.00
69318;BME280;56457;52.190;4.440;2024-01-11T05:53:03;103603.44;;;-3.81;100.00
69318;BME280;56457;52.190;4.440;2024-01-11T05:54:23;103600.44;;;-3.86;100.00
69318;BME280;56457;52.190;4.440;2024-01-11T05:55:45;103594.31;;;-3.96;100.00
69318;BME280;56457;52.190;4.440;2024-01-11T05:57:06;103594.91;;;-3.99;100.00
69318;BME280;56457;52.190;4.440;2024-01-11T05:58:27;103599.59;;;-3.95;100.00
69318;BME280;56457;52.190;4.440;2024-01-11T05:59:48;103599.44;;;-3.96;100.00
69318;BME280;56457;52.190;4.440;2024-01-11T06:01:09;103593.09;;;-4.00;100.00
69318;BME280;56457;52.190;4.440;2024-01-11T06:02:30;103598.25;;;-4.00;100.00
69318;BME280;56457;52.190;4.440;2024-01-11T06:03:51;103606.38;;;-3.95;100.00
69318;BME280;56457;52.190;4.440;2024-01-11T06:05:12;103608.31;;;-3.93;100.00
69318;BME280;56457;52.190;4.440;2024-01-11T06:06:33;103608.75;;;-3.88;100.00
69318;BME280;56457;52.190;4.440;2024-01-11T06:07:53;103601.06;;;-3.88;100.00
69318;BME280;56457;52.190;4.440;2024-01-11T06:09:14;103604.09;;;-3.92;100.00
69318;BME280;56457;52.190;4.440;2024-01-11T06:10:34;103592.78;;;-3.94;100.00
69318;BME280;56457;52.190;4.440;2024-01-11T06:11:55;103589.94;;;-3.97;100.00
69318;BME280;56457;52.190;4.440;2024-01-11T06:13:15;103595.41;;;-4.03;100.00
69318;BME280;56457;52.190;4.440;2024-01-11T06:14:36;103598.09;;;-4.01;100.00
69318;BME280;56457;52.190;4.440;2024-01-11T06:15:56;103608.19;;;-3.94;100.00
69318;BME280;56457;52.190;4.440;2024-01-11T06:17:17;103618.88;;;-3.90;100.00
69318;BME280;56457;52.190;4.440;2024-01-11T06:18:38;103619.16;;;-3.87;100.00
69318;BME280;56457;52.190;4.440;2024-01-11T06:19:58;103623.84;;;-3.83;100.00
69318;BME280;56457;52.190;4.440;2024-01-11T06:21:19;103624.88;;;-3.81;100.00
69318;BME280;56457;52.190;4.440;2024-01-11T06:22:39;103636.53;;;-3.84;100.00
69318;BME280;56457;52.190;4.440;2024-01-11T06:24:00;103632.75;;;-3.88;100.00
69318;BME280;56457;52.190;4.440;2024-01-11T06:25:20;103646.34;;;-3.89;100.00
69318;BME280;56457;52.190;4.440;2024-01-11T06:26:41;103643.78;;;-3.89;100.00
69318;BME280;56457;52.190;4.440;2024-01-11T06:28:03;103643.78;;;-3.89;100.00
69318;BME280;56457;52.190;4.440;2024-01-11T06:29:23;103649.81;;;-3.88;100.00
69318;BME280;56457;52.190;4.440;2024-01-11T06:30:44;103654.22;;;-3.96;100.00
69318;BME280;56457;52.190;4.440;2024-01-11T06:32:05;103667.94;;;-3.95;100.00
69318;BME280;56457;52.190;4.440;2024-01-11T06:33:25;103670.06;;;-4.00;100.00
69318;BME280;56457;52.190;4.440;2024-01-11T06:34:46;103672.34;;;-4.03;100.00
69318;BME280;56457;52.190;4.440;2024-01-11T06:36:07;103671.72;;;-4.00;100.00
69318;BME280;56457;52.190;4.440;2024-01-11T06:37:28;103675.50;;;-3.97;100.00
69318;BME280;56457;52.190;4.440;2024-01-11T06:38:51;103690.13;;;-3.96;100.00
69318;BME280;56457;52.190;4.440;2024-01-11T06:40:12;103684.66;;;-3.99;100.00
69318;BME280;56457;52.190;4.440;2024-01-11T06:41:32;103700.97;;;-3.98;100.00
69318;BME280;56457;52.190;4.440;2024-01-11T06:42:53;103701.59;;;-4.01;100.00
69318;BME280;56457;52.190;4.440;2024-01-11T06:44:13;103709.56;;;-3.98;100.00
69318;BME280;56457;52.190;4.440;2024-01-11T06:45:34;103711.84;;;-4.01;100.00
69318;BME280;56457;52.190;4.440;2024-01-11T06:46:55;103721.78;;;-4.04;100.00
69318;BME280;56457;52.190;4.440;2024-01-11T06:48:16;103721.50;;;-4.07;100.00
69318;BME280;56457;52.190;4.440;2024-01-11T06:49:40;103714.56;;;-4.08;100.00
69318;BME280;56457;52.190;4.440;2024-01-11T06:51:01;103716.06;;;-4.10;100.00
69318;BME280;56457;52.190;4.440;2024-01-11T06:52:21;103716.50;;;-4.06;100.00
69318;BME280;56457;52.190;4.440;2024-01-11T06:53:42;103709.44;;;-4.08;100.00
69318;BME280;56457;52.190;4.440;2024-01-11T06:55:03;103700.84;;;-4.09;100.00
69318;BME280;56457;52.190;4.440;2024-01-11T06:56:24;103699.47;;;-4.05;100.00
69318;BME280;56457;52.190;4.440;2024-01-11T06:57:46;103704.47;;;-4.07;100.00